Time;durP1;ratioP1;P1;durP2;ratioP2;P2;SDS_P1;SDS_P2;PMS_P1;PMS_P2;Temp;Humidity;BMP_temperature;BMP_pressure;BME280_temperature;BME280_humidity;BME280_pressure;Samples;Min_cycle;Max_cycle;Signal;HPM_P1;HPM_P2
2022/07/15 00:00:56;;;;;;;4.23;1.60;;;;;;;20.52;100.00;101079.00;2070944;28;20715;-68
2022/07/15 00:01:56;;;;;;;4.10;1.40;;;;;;;21.37;100.00;101205.19;2067772;28;20191;-68
2022/07/15 00:02:58;;;;;;;4.70;1.80;;;;;;;21.21;100.00;101175.53;2065295;28;20182;-68
2022/07/15 00:03:59;;;;;;;3.93;1.80;;;;;;;20.25;100.00;101037.88;2065295;28;20404;-68
2022/07/15 00:05:00;;;;;;;3.97;1.60;;;;;;;21.24;100.00;101187.84;2072224;28;20607;-68
2022/07/15 00:06:00;;;;;;;5.67;1.80;;;;;;;21.23;100.00;101198.34;2066853;28;20819;-68
2022/07/15 00:07:01;;;;;;;3.43;1.70;;;;;;;21.22;100.00;101196.81;2069039;28;20202;-69
2022/07/15 00:08:02;;;;;;;5.13;1.70;;;;;;;21.17;100.00;101199.53;2073080;28;20197;-68
2022/07/15 00:09:02;;;;;;;2.97;1.97;;;;;;;21.17;100.00;101202.34;2073127;28;20462;-68
2022/07/15 00:10:21;;;;;;;2.50;1.70;;;;;;;21.17;100.00;101210.81;2073262;28;20185;-68
2022/07/15 00:11:21;;;;;;;3.43;1.60;;;;;;;21.16;100.00;101206.44;2072973;28;20280;-68
2022/07/15 00:12:22;;;;;;;3.83;1.97;;;;;;;20.36;100.00;101079.50;2072964;28;20412;-68
2022/07/15 00:13:24;;;;;;;15.53;3.23;;;;;;;20.84;100.00;101159.59;2072673;28;20241;-68
2022/07/15 00:14:25;;;;;;;9.80;2.90;;;;;;;20.54;100.00;101113.84;2073015;28;20184;-69
2022/07/15 00:15:28;;;;;;;5.90;2.03;;;;;;;21.09;100.00;101201.97;2072854;28;20462;-68
2022/07/15 00:16:28;;;;;;;6.30;2.00;;;;;;;21.10;100.00;101197.94;2073424;28;20197;-68
2022/07/15 00:17:29;;;;;;;6.00;1.80;;;;;;;21.02;100.00;101199.59;2065983;28;20449;-68
2022/07/15 00:18:29;;;;;;;5.93;1.93;;;;;;;21.00;100.00;101184.44;2070039;28;20196;-68
2022/07/15 00:19:30;;;;;;;6.57;1.57;;;;;;;21.07;100.00;101192.47;2072140;28;20205;-68
2022/07/15 00:20:34;;;;;;;5.00;1.53;;;;;;;21.09;100.00;101189.94;2072453;28;20329;-68
2022/07/15 00:21:35;;;;;;;5.43;1.80;;;;;;;21.01;100.00;101191.63;2072998;28;20807;-69
2022/07/15 00:22:36;;;;;;;5.70;1.67;;;;;;;21.04;100.00;101208.31;2072825;28;20427;-68
2022/07/15 00:23:36;;;;;;;4.73;1.70;;;;;;;21.07;100.00;101189.66;2073644;28;20589;-68
2022/07/15 00:24:38;;;;;;;4.23;1.83;;;;;;;21.10;100.00;101197.13;2072251;28;20448;-69
2022/07/15 00:25:38;;;;;;;4.00;1.97;;;;;;;21.10;100.00;101186.66;2072534;28;20217;-68
2022/07/15 00:26:39;;;;;;;7.13;2.20;;;;;;;21.10;100.00;101197.94;2067081;28;20495;-68
2022/07/15 00:28:01;;;;;;;10.40;2.30;;;;;;;21.11;100.00;101193.03;2068305;28;20200;-68
2022/07/15 00:29:01;;;;;;;5.63;2.13;;;;;;;21.08;100.00;101185.59;2073288;28;20200;-68
2022/07/15 00:30:03;;;;;;;7.43;1.93;;;;;;;20.99;100.00;101177.25;2072848;28;20465;-68
2022/07/15 00:31:04;;;;;;;8.47;2.30;;;;;;;21.19;100.00;101197.00;2068535;28;20216;-68
2022/07/15 00:32:04;;;;;;;5.83;2.00;;;;;;;20.75;100.00;101128.72;2068374;28;20451;-69
2022/07/15 00:33:06;;;;;;;6.90;2.00;;;;;;;21.12;100.00;101195.38;2069933;28;20278;-68
2022/07/15 00:34:06;;;;;;;6.23;2.37;;;;;;;21.10;100.00;101194.31;2057068;28;20807;-69
2022/07/15 00:35:07;;;;;;;6.70;2.10;;;;;;;21.12;100.00;101192.56;2072507;28;20454;-69
2022/07/15 00:36:07;;;;;;;5.40;1.60;;;;;;;21.09;100.00;101182.25;2071579;28;20770;-68
2022/07/15 00:37:08;;;;;;;6.90;1.87;;;;;;;20.50;100.00;101096.38;2072521;28;20236;-69
2022/07/15 00:38:10;;;;;;;6.43;2.30;;;;;;;21.19;100.00;101194.19;2072218;28;20193;-69
2022/07/15 00:39:10;;;;;;;7.10;1.83;;;;;;;20.53;100.00;101094.59;2072937;28;20498;-68
2022/07/15 00:40:12;;;;;;;6.57;1.67;;;;;;;21.19;100.00;101194.19;2072606;28;20502;-68
2022/07/15 00:41:12;;;;;;;5.80;1.90;;;;;;;21.18;100.00;101192.66;2069746;28;20210;-68
2022/07/15 00:42:43;;;;;;;6.07;1.80;;;;;;;21.19;100.00;101199.84;2064745;28;20931;-68
2022/07/15 00:43:35;;;;;;;7.37;2.07;;;;;;;21.19;100.00;101194.94;2067794;28;20586;-68
2022/07/15 00:44:35;;;;;;;6.63;1.77;;;;;;;21.15;100.00;101185.16;2071980;28;20425;-68
2022/07/15 00:45:36;;;;;;;7.83;1.93;;;;;;;21.23;100.00;101198.34;2071188;28;20182;-68
2022/07/15 00:46:37;;;;;;;6.93;1.63;;;;;;;21.23;100.00;101198.34;2064814;28;20186;-69
2022/07/15 00:47:37;;;;;;;7.47;1.83;;;;;;;21.13;100.00;101180.00;2072822;28;20185;-69
2022/07/15 00:48:38;;;;;;;7.83;1.77;;;;;;;21.16;100.00;101192.34;2065165;28;20194;-69
2022/07/15 00:49:38;;;;;;;4.03;1.80;;;;;;;21.11;100.00;101193.84;2070546;28;20292;-69
2022/07/15 00:50:39;;;;;;;4.33;1.80;;;;;;;21.15;100.00;101191.59;2067789;28;20249;-68
2022/07/15 00:51:45;;;;;;;4.80;1.50;;;;;;;21.08;100.00;101175.06;2068782;28;20209;-68
2022/07/15 00:52:54;;;;;;;5.67;1.77;;;;;;;21.18;100.00;101193.41;2072685;28;20201;-68
2022/07/15 00:53:55;;;;;;;6.30;2.20;;;;;;;20.36;100.00;101071.06;2072168;28;20440;-68
2022/07/15 00:55:00;;;;;;;5.63;1.87;;;;;;;21.08;100.00;101188.41;2072716;28;20413;-69
2022/07/15 00:56:02;;;;;;;7.40;1.90;;;;;;;20.60;100.00;101114.69;2071968;28;20425;-68
2022/07/15 00:57:04;;;;;;;5.20;1.90;;;;;;;20.82;100.00;101157.25;2072338;28;20839;-69
2022/07/15 00:58:06;;;;;;;8.50;2.00;;;;;;;20.11;100.00;101043.56;2073194;28;20420;-68
2022/07/15 00:59:09;;;;;;;5.50;2.03;;;;;;;20.93;100.00;101179.22;2064807;28;20548;-69
2022/07/15 01:00:13;;;;;;;7.20;2.10;;;;;;;20.90;100.00;101180.97;2072222;28;21014;-69
2022/07/15 01:01:18;;;;;;;8.67;1.70;;;;;;;20.84;100.00;101179.31;2072623;28;20443;-68
2022/07/15 01:02:20;;;;;;;5.60;1.93;;;;;;;20.85;100.00;101180.84;2071141;28;20445;-68
2022/07/15 01:03:20;;;;;;;9.63;2.60;;;;;;;20.84;100.00;101180.09;2072808;28;20609;-69
2022/07/15 01:04:22;;;;;;;7.43;1.90;;;;;;;20.88;100.00;101183.47;2072114;28;20510;-68
2022/07/15 01:05:23;;;;;;;4.83;2.27;;;;;;;20.85;100.00;101176.00;2069382;28;20204;-69
2022/07/15 01:06:26;;;;;;;3.93;1.80;;;;;;;20.85;100.00;101181.63;2066669;28;20443;-68
2022/07/15 01:07:27;;;;;;;5.70;1.90;;;;;;;20.13;100.00;101083.22;2070633;28;20184;-68
2022/07/15 01:08:27;;;;;;;9.53;2.33;;;;;;;20.76;100.00;101184.56;2064744;28;20431;-68
2022/07/15 01:09:28;;;;;;;10.50;2.63;;;;;;;20.79;100.00;101177.19;2072626;28;20592;-69
2022/07/15 01:10:28;;;;;;;11.97;2.80;;;;;;;20.78;100.00;101178.44;2065497;28;20196;-69
2022/07/15 01:11:31;;;;;;;10.13;2.30;;;;;;;20.75;100.00;101171.75;2064397;28;20232;-68
2022/07/15 01:12:34;;;;;;;8.17;2.50;;;;;;;19.98;100.00;101048.66;2070296;28;20291;-68
2022/07/15 01:13:34;;;;;;;6.97;2.20;;;;;;;20.75;100.00;101173.78;2072635;28;20463;-68
2022/07/15 01:14:36;;;;;;;8.53;2.17;;;;;;;19.65;100.00;101003.88;2071771;28;20504;-68
2022/07/15 01:15:36;;;;;;;10.43;2.47;;;;;;;20.70;100.00;101163.22;2072346;28;20205;-68
2022/07/15 01:16:37;;;;;;;9.67;2.30;;;;;;;19.94;100.00;101046.06;2070856;28;20444;-68
2022/07/15 01:17:37;;;;;;;13.40;2.47;;;;;;;20.72;100.00;101189.63;2063880;28;20187;-68
2022/07/15 01:18:38;;;;;;;6.63;2.10;;;;;;;20.71;100.00;101171.19;2073181;28;20198;-68
2022/07/15 01:19:38;;;;;;;6.23;2.17;;;;;;;20.05;100.00;101065.94;2065229;28;20193;-68
2022/07/15 01:20:43;;;;;;;6.47;1.97;;;;;;;20.73;100.00;101168.63;2070171;28;20721;-68
2022/07/15 01:21:44;;;;;;;11.23;2.30;;;;;;;20.69;100.00;101168.09;2072802;28;20199;-68
2022/07/15 01:22:45;;;;;;;4.73;1.90;;;;;;;20.72;100.00;101169.16;2072402;28;20537;-68
2022/07/15 01:23:45;;;;;;;5.63;2.07;;;;;;;20.71;100.00;101164.75;2072056;28;20456;-69
2022/07/15 01:24:46;;;;;;;7.50;2.20;;;;;;;20.71;100.00;101171.19;2072248;28;20683;-68
2022/07/15 01:25:47;;;;;;;10.03;2.23;;;;;;;20.27;100.00;101102.91;2071503;28;20192;-68
2022/07/15 01:26:47;;;;;;;12.13;2.73;;;;;;;20.60;100.00;101170.22;2072394;28;20279;-68
2022/07/15 01:27:48;;;;;;;6.97;2.40;;;;;;;20.62;100.00;101165.66;2072024;28;20202;-68
2022/07/15 01:28:48;;;;;;;12.37;2.87;;;;;;;20.60;100.00;101162.56;2072787;28;20563;-68
2022/07/15 01:29:49;;;;;;;7.73;2.10;;;;;;;20.54;100.00;101147.63;2071810;28;20710;-69
2022/07/15 01:30:49;;;;;;;9.90;2.40;;;;;;;20.65;100.00;101159.06;2072256;28;20303;-69
2022/07/15 01:31:50;;;;;;;10.53;2.13;;;;;;;19.35;100.00;100960.16;2072787;28;20279;-68
2022/07/15 01:32:51;;;;;;;12.53;2.60;;;;;;;20.63;100.00;101158.75;2072430;28;20239;-68
2022/07/15 01:33:55;;;;;;;5.40;1.80;;;;;;;20.63;100.00;101158.75;2072081;28;20799;-69
2022/07/15 01:34:55;;;;;;;10.73;2.70;;;;;;;20.64;100.00;101153.91;2072415;28;20517;-69
2022/07/15 01:35:55;;;;;;;8.33;2.73;;;;;;;20.48;100.00;101143.16;2072895;28;20423;-68
2022/07/15 01:36:56;;;;;;;7.57;2.10;;;;;;;20.62;100.00;101160.03;2064546;28;20221;-69
2022/07/15 01:37:57;;;;;;;7.40;2.10;;;;;;;20.54;100.00;101146.84;2070504;28;20275;-68
2022/07/15 01:38:57;;;;;;;4.87;2.10;;;;;;;20.66;100.00;101171.88;2072649;28;20197;-68
2022/07/15 01:39:58;;;;;;;5.83;2.20;;;;;;;20.68;100.00;101168.56;2071836;28;20197;-68
2022/07/15 01:40:58;;;;;;;6.50;1.90;;;;;;;20.63;100.00;101158.75;2072053;28;20307;-68
2022/07/15 01:41:59;;;;;;;5.83;2.27;;;;;;;20.69;100.00;101164.47;2072569;28;20243;-68
2022/07/15 01:42:59;;;;;;;9.53;2.50;;;;;;;20.55;100.00;101154.00;2071594;28;20220;-68
2022/07/15 01:44:00;;;;;;;8.50;2.30;;;;;;;20.59;100.00;101163.03;2064406;28;20322;-69
2022/07/15 01:45:00;;;;;;;7.40;2.63;;;;;;;20.57;100.00;101165.59;2072043;28;20204;-68
2022/07/15 01:46:01;;;;;;;5.23;1.90;;;;;;;20.54;100.00;101161.69;2072171;28;20207;-69
2022/07/15 01:47:01;;;;;;;6.03;1.97;;;;;;;20.59;100.00;101165.84;2071896;28;20197;-68
2022/07/15 01:48:02;;;;;;;8.57;2.20;;;;;;;20.49;100.00;101142.69;2072340;28;20220;-68
2022/07/15 01:50:22;;;;;;;5.93;2.17;;;;;;;20.60;100.00;101158.97;2067818;28;20202;-68
2022/07/15 01:51:22;;;;;;;8.70;2.37;;;;;;;20.63;100.00;101164.38;2072390;28;20478;-68
2022/07/15 01:52:24;;;;;;;3.70;1.90;;;;;;;20.20;100.00;101102.50;2069999;28;20182;-68
2022/07/15 01:53:26;;;;;;;5.43;2.33;;;;;;;20.64;100.00;101163.13;2065586;28;20188;-68
2022/07/15 01:54:29;;;;;;;5.83;1.93;;;;;;;20.65;100.00;101167.50;2071518;28;20483;-68
2022/07/15 01:55:29;;;;;;;5.33;2.00;;;;;;;20.66;100.00;101169.03;2072761;28;20434;-68
2022/07/15 01:56:30;;;;;;;5.77;1.97;;;;;;;20.70;100.00;101171.66;2064699;28;20548;-68
2022/07/15 01:57:30;;;;;;;5.93;2.20;;;;;;;20.01;100.00;101070.22;2070725;28;20179;-68
2022/07/15 01:58:31;;;;;;;4.50;2.10;;;;;;;20.71;100.00;101161.94;2066901;28;20595;-68
2022/07/15 01:59:31;;;;;;;8.53;2.37;;;;;;;19.88;100.00;101042.38;2068716;28;20215;-68
2022/07/15 02:00:32;;;;;;;5.00;1.80;;;;;;;20.73;100.00;101165.06;2068971;28;20193;-68
2022/07/15 02:01:32;;;;;;;5.83;2.13;;;;;;;20.38;100.00;101116.38;2065600;28;20180;-68
2022/07/15 02:02:33;;;;;;;4.33;1.77;;;;;;;20.71;100.00;101161.94;2072370;28;20167;-68
2022/07/15 02:03:33;;;;;;;4.13;1.67;;;;;;;20.73;100.00;101168.63;2072936;28;20195;-69
2022/07/15 02:04:34;;;;;;;3.77;1.80;;;;;;;20.74;100.00;101163.78;2071648;28;20646;-68
2022/07/15 02:05:36;;;;;;;5.20;2.03;;;;;;;19.84;100.00;101038.19;2065577;28;20219;-68
2022/07/15 02:06:36;;;;;;;4.53;1.93;;;;;;;20.07;100.00;101082.34;2070169;28;20254;-68
2022/07/15 02:07:38;;;;;;;4.50;1.80;;;;;;;20.62;100.00;101165.66;2071716;28;20455;-68
2022/07/15 02:08:38;;;;;;;5.37;1.80;;;;;;;20.56;100.00;101153.53;2071516;28;20220;-68
2022/07/15 02:09:39;;;;;;;8.57;3.03;;;;;;;20.62;100.00;101159.25;2071890;28;20463;-68
2022/07/15 02:10:39;;;;;;;6.87;2.60;;;;;;;20.62;100.00;101160.03;2065472;28;20694;-68
2022/07/15 02:11:40;;;;;;;7.93;2.97;;;;;;;20.64;100.00;101159.53;2071212;28;20190;-69
2022/07/15 02:12:40;;;;;;;10.27;3.03;;;;;;;20.59;100.00;101163.03;2064619;28;20191;-68
2022/07/15 02:13:41;;;;;;;10.67;2.63;;;;;;;20.52;100.00;101167.03;2071193;28;20196;-68
2022/07/15 02:14:41;;;;;;;6.23;2.30;;;;;;;20.51;100.00;101159.84;2071933;28;20248;-69
2022/07/15 02:15:41;;;;;;;6.47;2.60;;;;;;;20.49;100.00;101156.75;2071477;28;20272;-68
2022/07/15 02:16:42;;;;;;;6.33;2.30;;;;;;;20.57;100.00;101174.03;2063560;28;20243;-68
2022/07/15 02:17:42;;;;;;;7.83;2.27;;;;;;;20.56;100.00;101161.19;2065927;28;20288;-68
2022/07/15 02:18:43;;;;;;;10.00;2.43;;;;;;;20.57;100.00;101163.53;2071533;28;20217;-68
2022/07/15 02:19:43;;;;;;;5.97;2.70;;;;;;;19.87;100.00;101065.38;2071481;28;20211;-68
2022/07/15 02:20:44;;;;;;;8.23;2.30;;;;;;;20.03;100.00;101098.63;2072854;28;20555;-68
2022/07/15 02:21:47;;;;;;;6.73;2.43;;;;;;;20.38;100.00;101148.13;2064470;28;20203;-68
2022/07/15 02:22:48;;;;;;;3.53;1.73;;;;;;;20.46;100.00;101171.03;2070987;28;20454;-68
2022/07/15 02:23:48;;;;;;;6.37;2.37;;;;;;;20.34;100.00;101156.00;2071777;28;20819;-68
2022/07/15 02:24:49;;;;;;;4.20;2.10;;;;;;;20.29;100.00;101159.50;2071976;28;20227;-68
2022/07/15 02:25:49;;;;;;;6.17;2.10;;;;;;;20.37;100.00;101174.72;2072125;28;20674;-68
2022/07/15 02:26:50;;;;;;;4.47;2.30;;;;;;;20.35;100.00;101182.09;2071261;28;20246;-68
2022/07/15 02:27:52;;;;;;;5.80;2.23;;;;;;;20.30;100.00;101174.31;2071299;28;20183;-69
2022/07/15 02:28:52;;;;;;;7.50;2.90;;;;;;;20.21;100.00;101168.81;2072052;28;20646;-68
2022/07/15 02:29:53;;;;;;;12.40;3.20;;;;;;;20.13;100.00;101159.97;2072901;28;20807;-68
2022/07/15 02:30:53;;;;;;;17.73;3.53;;;;;;;19.87;100.00;101124.44;2072165;28;20215;-68
2022/07/15 02:31:54;;;;;;;12.37;3.40;;;;;;;20.20;100.00;101172.88;2071512;28;20685;-68
2022/07/15 02:32:55;;;;;;;8.97;2.57;;;;;;;20.20;100.00;101182.09;2072439;28;20321;-68
2022/07/15 02:33:56;;;;;;;8.27;2.67;;;;;;;18.97;100.00;100998.75;2071636;28;20700;-69
2022/07/15 02:34:56;;;;;;;7.17;2.27;;;;;;;20.12;100.00;101180.91;2071812;28;20823;-69
2022/07/15 02:35:57;;;;;;;6.17;2.10;;;;;;;20.11;100.00;101187.06;2070513;28;20197;-68
2022/07/15 02:36:58;;;;;;;5.53;2.37;;;;;;;19.80;100.00;101127.63;2063874;28;20190;-68
2022/07/15 02:38:02;;;;;;;7.97;2.60;;;;;;;20.12;100.00;101191.41;2070139;28;20174;-68
2022/07/15 02:39:03;;;;;;;8.60;2.80;;;;;;;19.50;100.00;101104.31;2072253;28;20873;-68
2022/07/15 02:40:04;;;;;;;5.20;2.43;;;;;;;20.06;100.00;101196.13;2065435;28;20442;-68
2022/07/15 02:41:05;;;;;;;4.33;2.37;;;;;;;20.07;100.00;101192.06;2071957;28;20444;-68
2022/07/15 02:42:06;;;;;;;4.53;2.10;;;;;;;19.82;100.00;101156.03;2071110;28;21046;-68
2022/07/15 02:43:06;;;;;;;7.33;2.40;;;;;;;19.24;100.00;101069.56;2071000;28;20200;-68
2022/07/15 02:44:07;;;;;;;5.90;2.50;;;;;;;19.97;100.00;101194.19;2071636;28;20285;-68
2022/07/15 02:45:08;;;;;;;6.43;2.27;;;;;;;19.99;100.00;101194.47;2071522;28;20189;-68
2022/07/15 02:46:09;;;;;;;9.83;2.73;;;;;;;19.99;100.00;101194.47;2070969;28;20188;-68
2022/07/15 02:47:10;;;;;;;5.47;1.97;;;;;;;19.98;100.00;101195.75;2063553;28;20221;-68
2022/07/15 02:48:10;;;;;;;7.40;2.17;;;;;;;19.91;100.00;101198.91;2071827;28;20451;-68
2022/07/15 02:49:11;;;;;;;9.47;2.53;;;;;;;19.97;100.00;101199.81;2072417;28;20279;-68
2022/07/15 02:50:11;;;;;;;6.83;2.50;;;;;;;19.96;100.00;101191.84;2066774;28;20186;-68
2022/07/15 02:51:13;;;;;;;6.13;2.60;;;;;;;19.95;100.00;101193.88;2064033;28;20221;-68
2022/07/15 02:52:13;;;;;;;8.97;2.70;;;;;;;19.92;100.00;101194.06;2067343;28;20189;-68
2022/07/15 02:53:15;;;;;;;7.60;2.40;;;;;;;18.69;100.00;100998.22;2071576;28;20490;-68
2022/07/15 02:54:15;;;;;;;6.87;2.40;;;;;;;19.92;100.00;101186.44;2071397;28;20260;-69
2022/07/15 02:55:16;;;;;;;7.83;2.60;;;;;;;19.93;100.00;101193.59;2071874;28;20416;-68
2022/07/15 02:56:17;;;;;;;6.80;2.77;;;;;;;19.94;100.00;101202.81;2064697;28;20197;-68
2022/07/15 02:57:17;;;;;;;10.20;3.10;;;;;;;19.96;100.00;101201.06;2070677;28;20201;-68
2022/07/15 02:58:18;;;;;;;11.93;3.30;;;;;;;19.94;100.00;101195.16;2066177;28;20201;-68
2022/07/15 02:59:19;;;;;;;8.53;3.17;;;;;;;19.99;100.00;101191.66;2069009;28;20196;-68
2022/07/15 03:00:19;;;;;;;9.10;2.60;;;;;;;19.97;100.00;101196.22;2071829;28;20278;-68
2022/07/15 03:01:20;;;;;;;7.57;2.93;;;;;;;20.00;100.00;101190.41;2071800;28;20449;-68
2022/07/15 03:02:20;;;;;;;7.03;2.90;;;;;;;20.02;100.00;101192.72;2072227;28;20248;-68
2022/07/15 03:03:21;;;;;;;7.70;2.53;;;;;;;20.02;100.00;101193.53;2070970;28;20679;-68
2022/07/15 03:04:21;;;;;;;5.83;2.37;;;;;;;20.02;100.00;101192.72;2063911;28;20182;-68
2022/07/15 03:05:22;;;;;;;5.80;2.50;;;;;;;20.03;100.00;101197.09;2063786;28;20198;-68
2022/07/15 03:06:22;;;;;;;5.20;2.40;;;;;;;20.03;100.00;101186.63;2070245;28;20674;-68
2022/07/15 03:07:23;;;;;;;6.13;2.50;;;;;;;20.06;100.00;101190.50;2071458;28;20197;-68
2022/07/15 03:08:24;;;;;;;7.70;2.70;;;;;;;20.07;100.00;101198.47;2072210;28;20197;-68
2022/07/15 03:09:25;;;;;;;7.10;2.90;;;;;;;20.09;100.00;101189.56;2072033;28;20252;-68
2022/07/15 03:10:25;;;;;;;9.33;2.77;;;;;;;20.11;100.00;101187.81;2070029;28;20988;-68
2022/07/15 03:11:26;;;;;;;7.20;2.50;;;;;;;20.12;100.00;101188.59;2064630;28;20188;-68
2022/07/15 03:12:26;;;;;;;5.90;2.67;;;;;;;20.14;100.00;101188.88;2072742;28;20675;-68
2022/07/15 03:13:27;;;;;;;5.30;2.53;;;;;;;20.16;100.00;101181.50;2071312;28;20304;-68
2022/07/15 03:14:27;;;;;;;9.87;2.87;;;;;;;20.06;100.00;101171.56;2071136;28;20220;-69
2022/07/15 03:15:28;;;;;;;10.07;2.80;;;;;;;20.13;100.00;101178.91;2071447;28;20713;-69
2022/07/15 03:16:28;;;;;;;17.53;3.60;;;;;;;19.33;100.00;101063.06;2072145;28;20205;-69
2022/07/15 03:17:29;;;;;;;15.57;4.10;;;;;;;20.16;100.00;101180.75;2068195;28;20241;-69
2022/07/15 03:18:30;;;;;;;16.20;3.80;;;;;;;20.13;100.00;101184.53;2065250;28;20452;-68
2022/07/15 03:19:30;;;;;;;15.27;3.80;;;;;;;20.04;100.00;101168.47;2072639;28;20206;-68
2022/07/15 03:20:31;;;;;;;15.70;4.37;;;;;;;20.16;100.00;101178.69;2074051;28;20282;-68
2022/07/15 03:21:31;;;;;;;18.43;3.50;;;;;;;20.08;100.00;101165.50;2073596;28;20197;-68
2022/07/15 03:22:33;;;;;;;12.50;3.10;;;;;;;20.25;100.00;101180.63;2073534;28;20197;-69
2022/07/15 03:23:33;;;;;;;13.17;3.47;;;;;;;20.23;100.00;101188.78;2073062;28;20186;-68
2022/07/15 03:24:34;;;;;;;17.03;3.80;;;;;;;20.25;100.00;101177.81;2072619;28;20516;-68
2022/07/15 03:25:35;;;;;;;14.57;3.27;;;;;;;20.28;100.00;101182.50;2072967;28;20208;-69
2022/07/15 03:26:35;;;;;;;14.83;3.80;;;;;;;20.29;100.00;101184.03;2073672;28;20275;-68
2022/07/15 03:27:36;;;;;;;12.07;3.27;;;;;;;20.33;100.00;101182.59;2072747;28;20268;-68
2022/07/15 03:28:36;;;;;;;11.47;3.43;;;;;;;20.36;100.00;101181.59;2073255;28;20177;-68
2022/07/15 03:29:37;;;;;;;11.77;3.10;;;;;;;20.37;100.00;101176.75;2073335;28;20687;-68
2022/07/15 03:30:38;;;;;;;12.00;2.33;;;;;;;20.37;100.00;101180.34;2072605;28;20204;-68
2022/07/15 03:31:38;;;;;;;13.43;3.00;;;;;;;20.30;100.00;101163.06;2071762;28;20960;-68
2022/07/15 03:32:39;;;;;;;9.07;2.80;;;;;;;20.38;100.00;101167.06;2073455;28;20194;-68
2022/07/15 03:33:39;;;;;;;10.33;2.60;;;;;;;20.45;100.00;101183.53;2073030;28;20194;-68
2022/07/15 03:34:40;;;;;;;9.77;2.97;;;;;;;20.48;100.00;101176.94;2072312;28;20259;-68
2022/07/15 03:35:42;;;;;;;11.90;2.50;;;;;;;20.50;100.00;101180.81;2073303;28;20644;-68
2022/07/15 03:36:42;;;;;;;13.00;2.80;;;;;;;20.40;100.00;101167.34;2073213;28;20178;-68
2022/07/15 03:37:43;;;;;;;9.03;2.93;;;;;;;20.55;100.00;101187.81;2073346;28;20424;-68
2022/07/15 03:38:43;;;;;;;7.37;2.10;;;;;;;20.50;100.00;101172.38;2073651;28;20197;-69
2022/07/15 03:39:44;;;;;;;7.43;2.53;;;;;;;20.56;100.00;101184.50;2073469;28;20198;-68
2022/07/15 03:40:45;;;;;;;9.30;2.43;;;;;;;20.56;100.00;101173.25;2073065;28;20276;-68
2022/07/15 03:41:46;;;;;;;9.50;2.20;;;;;;;20.56;100.00;101184.50;2073511;28;20194;-68
2022/07/15 03:42:47;;;;;;;6.47;2.27;;;;;;;20.57;100.00;101185.28;2073286;28;20240;-68
2022/07/15 03:43:47;;;;;;;11.87;2.60;;;;;;;20.58;100.00;101187.59;2070470;28;20436;-69
2022/07/15 03:44:48;;;;;;;6.77;2.60;;;;;;;20.61;100.00;101175.38;2065586;28;20178;-69
2022/07/15 03:45:48;;;;;;;6.83;2.60;;;;;;;20.61;100.00;101177.41;2073384;28;20181;-68
2022/07/15 03:46:49;;;;;;;8.50;2.30;;;;;;;20.54;100.00;101163.72;2065798;28;20548;-68
2022/07/15 03:47:49;;;;;;;8.77;2.43;;;;;;;20.65;100.00;101183.63;2064745;28;20191;-68
2022/07/15 03:48:50;;;;;;;9.30;2.40;;;;;;;20.67;100.00;101176.22;2065382;28;20190;-68
2022/07/15 03:49:50;;;;;;;9.90;2.60;;;;;;;20.68;100.00;101186.22;2069949;28;20601;-68
2022/07/15 03:50:50;;;;;;;8.10;2.37;;;;;;;20.70;100.00;101180.91;2073100;28;20691;-68
2022/07/15 03:51:51;;;;;;;10.07;2.50;;;;;;;20.70;100.00;101178.06;2073332;28;20184;-68
2022/07/15 03:52:51;;;;;;;8.27;2.37;;;;;;;20.70;100.00;101178.06;2073183;28;20189;-69
2022/07/15 03:53:52;;;;;;;6.23;2.17;;;;;;;20.73;100.00;101177.09;2072531;28;20199;-68
2022/07/15 03:54:52;;;;;;;7.00;2.20;;;;;;;20.28;100.00;101101.66;2072295;28;20194;-69
2022/07/15 03:55:53;;;;;;;6.07;2.13;;;;;;;20.70;100.00;101174.47;2072746;28;20248;-68
2022/07/15 03:56:54;;;;;;;8.03;2.20;;;;;;;20.78;100.00;101184.09;2073173;28;20560;-68
2022/07/15 03:57:55;;;;;;;6.00;2.10;;;;;;;19.61;100.00;101000.53;2073085;28;20189;-69
2022/07/15 03:58:57;;;;;;;7.27;2.37;;;;;;;19.93;100.00;101052.97;2069179;28;20393;-68
2022/07/15 03:59:57;;;;;;;7.00;2.10;;;;;;;20.74;100.00;101164.56;2068053;28;20452;-68
2022/07/15 04:00:58;;;;;;;6.93;2.13;;;;;;;20.89;100.00;101187.06;2072851;28;20479;-68
2022/07/15 04:01:58;;;;;;;6.53;2.20;;;;;;;20.91;100.00;101187.38;2072306;28;20181;-68
2022/07/15 04:02:58;;;;;;;5.33;1.80;;;;;;;20.92;100.00;101181.25;2065673;28;20196;-68
2022/07/15 04:03:59;;;;;;;6.23;1.70;;;;;;;20.96;100.00;101181.84;2072742;28;20213;-69
2022/07/15 04:05:00;;;;;;;4.73;1.90;;;;;;;20.60;100.00;101125.94;2072076;28;20308;-68
2022/07/15 04:06:00;;;;;;;5.93;1.93;;;;;;;20.56;100.00;101118.94;2067561;28;20632;-68
2022/07/15 04:07:01;;;;;;;5.00;1.50;;;;;;;21.06;100.00;101188.91;2065180;28;20276;-68
2022/07/15 04:08:01;;;;;;;7.27;2.00;;;;;;;21.11;100.00;101187.41;2073044;28;20671;-68
2022/07/15 04:09:03;;;;;;;7.03;2.40;;;;;;;21.14;100.00;101200.53;2072957;28;20235;-68
2022/07/15 04:10:04;;;;;;;10.00;2.10;;;;;;;21.18;100.00;101184.19;2072975;28;20178;-68
2022/07/15 04:11:05;;;;;;;4.87;2.20;;;;;;;21.20;100.00;101190.88;2072662;28;20525;-68
2022/07/15 04:12:05;;;;;;;8.43;2.20;;;;;;;21.18;100.00;101190.59;2073816;28;20424;-68
2022/07/15 04:13:06;;;;;;;5.97;2.17;;;;;;;21.19;100.00;101189.31;2073361;28;20194;-68
2022/07/15 04:14:06;;;;;;;5.37;1.90;;;;;;;21.20;100.00;101192.91;2071754;28;20233;-69
2022/07/15 04:15:08;;;;;;;5.90;1.73;;;;;;;20.34;100.00;101048.25;2071328;28;20190;-69
2022/07/15 04:16:11;;;;;;;6.37;1.80;;;;;;;20.72;100.00;101098.72;2070992;28;20189;-68
2022/07/15 04:17:13;;;;;;;3.80;1.87;;;;;;;21.21;100.00;101171.91;2072034;28;20597;-68
2022/07/15 04:18:14;;;;;;;3.60;1.50;;;;;;;21.39;100.00;101194.22;2072762;28;20941;-68
2022/07/15 04:19:14;;;;;;;5.57;1.60;;;;;;;21.42;100.00;101196.81;2072190;28;20818;-68
2022/07/15 04:20:15;;;;;;;5.43;1.50;;;;;;;21.37;100.00;101197.53;2064280;28;20182;-68
2022/07/15 04:21:15;;;;;;;2.93;1.43;;;;;;;21.46;100.00;101199.41;2065506;28;20671;-68
2022/07/15 04:22:16;;;;;;;3.77;1.60;;;;;;;21.32;100.00;101186.94;2068622;28;20193;-69
2022/07/15 04:23:17;;;;;;;3.93;1.50;;;;;;;21.38;100.00;101172.91;2067557;28;20968;-69
2022/07/15 04:24:17;;;;;;;4.23;1.70;;;;;;;20.92;100.00;101095.94;2067743;28;20575;-69
2022/07/15 04:25:20;;;;;;;3.73;1.80;;;;;;;21.67;100.00;101195.31;2067777;28;20673;-69
2022/07/15 04:26:21;;;;;;;6.97;2.07;;;;;;;21.72;100.00;101195.44;2069209;28;20961;-69
2022/07/15 04:27:21;;;;;;;5.20;1.80;;;;;;;21.81;100.00;101200.13;2066735;28;21428;-69
2022/07/15 04:28:23;;;;;;;4.07;1.60;;;;;;;21.83;100.00;101189.13;2070535;28;20197;-69
2022/07/15 04:29:23;;;;;;;5.67;1.80;;;;;;;21.80;100.00;101178.84;2070891;28;20293;-69
2022/07/15 04:30:24;;;;;;;6.80;2.00;;;;;;;21.94;100.00;101187.19;2069731;28;20201;-69
2022/07/15 04:31:24;;;;;;;5.57;1.50;;;;;;;22.00;100.00;101193.66;2069909;28;20206;-69
2022/07/15 04:32:26;;;;;;;4.07;1.63;;;;;;;22.02;100.00;101188.31;2070087;28;20243;-69
2022/07/15 04:33:27;;;;;;;6.23;1.97;;;;;;;22.07;100.00;101184.00;2066278;28;20197;-69
2022/07/15 04:34:27;;;;;;;8.70;2.30;;;;;;;22.11;100.00;101190.97;2070376;28;20460;-69
2022/07/15 04:35:28;;;;;;;5.00;2.20;;;;;;;22.19;100.00;101191.28;2069020;28;20202;-69
2022/07/15 04:36:29;;;;;;;7.33;1.90;;;;;;;22.24;100.00;101187.75;2069947;28;20554;-69
2022/07/15 04:37:29;;;;;;;4.40;2.03;;;;;;;22.27;100.00;101190.34;2070166;28;20287;-69
2022/07/15 04:38:29;;;;;;;5.77;2.10;;;;;;;22.33;100.00;101190.41;2070138;28;20209;-69
2022/07/15 04:39:30;;;;;;;10.00;2.43;;;;;;;22.40;100.00;101198.41;2072701;28;20738;-69
2022/07/15 04:40:34;;;;;;;7.67;2.37;;;;;;;22.46;100.00;101190.81;2070905;28;20225;-69
2022/07/15 04:41:34;;;;;;;8.43;2.57;;;;;;;22.51;100.00;101195.75;2070290;28;20231;-69
2022/07/15 04:42:36;;;;;;;8.27;2.50;;;;;;;22.57;100.00;101199.38;2070472;28;20508;-69